sensor_id;sensor_type;location;lat;lon;timestamp;pressure;altitude;pressure_sealevel;temperature
80537;BMP280;69867;47.074;15.404;2023-06-22T00:00:58;97761.34;;;20.64
80537;BMP280;69867;47.074;15.404;2023-06-22T00:03:24;97759.63;;;20.63
80537;BMP280;69867;47.074;15.404;2023-06-22T00:05:50;97755.28;;;20.62
80537;BMP280;69867;47.074;15.404;2023-06-22T00:08:16;97757.94;;;20.62
80537;BMP280;69867;47.074;15.404;2023-06-22T00:10:42;97750.88;;;20.63
80537;BMP280;69867;47.074;15.404;2023-06-22T00:13:08;97758.31;;;20.56
80537;BMP280;69867;47.074;15.404;2023-06-22T00:15:34;97761.22;;;20.52
80537;BMP280;69867;47.074;15.404;2023-06-22T00:18:00;97761.59;;;20.45
80537;BMP280;69867;47.074;15.404;2023-06-22T00:20:26;97760.94;;;20.42
80537;BMP280;69867;47.074;15.404;2023-06-22T00:22:52;97754.97;;;20.38
80537;BMP280;69867;47.074;15.404;2023-06-22T00:25:17;97750.72;;;20.36
80537;BMP280;69867;47.074;15.404;2023-06-22T00:27:42;97755.22;;;20.34
80537;BMP280;69867;47.074;15.404;2023-06-22T00:30:08;97753.63;;;20.31
80537;BMP280;69867;47.074;15.404;2023-06-22T00:32:33;97756.34;;;20.30
80537;BMP280;69867;47.074;15.404;2023-06-22T00:34:59;97752.97;;;20.28
80537;BMP280;69867;47.074;15.404;2023-06-22T00:37:24;97752.97;;;20.28
80537;BMP280;69867;47.074;15.404;2023-06-22T00:39:49;97747.69;;;20.28
80537;BMP280;69867;47.074;15.404;2023-06-22T00:42:14;97750.13;;;20.31
80537;BMP280;69867;47.074;15.404;2023-06-22T00:44:40;97740.84;;;20.39
80537;BMP280;69867;47.074;15.404;2023-06-22T00:47:05;97746.34;;;20.51
80537;BMP280;69867;47.074;15.404;2023-06-22T00:49:31;97733.88;;;20.53
80537;BMP280;69867;47.074;15.404;2023-06-22T00:51:57;97739.06;;;20.54
80537;BMP280;69867;47.074;15.404;2023-06-22T00:54:22;97742.66;;;20.53
80537;BMP280;69867;47.074;15.404;2023-06-22T00:56:48;97736.44;;;20.54
80537;BMP280;69867;47.074;15.404;2023-06-22T00:59:13;97727.56;;;20.55
80537;BMP280;69867;47.074;15.404;2023-06-22T01:01:39;97732.09;;;20.53
80537;BMP280;69867;47.074;15.404;2023-06-22T01:04:04;97728.03;;;20.48
80537;BMP280;69867;47.074;15.404;2023-06-22T01:06:35;97725.69;;;20.43
80537;BMP280;69867;47.074;15.404;2023-06-22T01:09:15;97740.97;;;20.22
80537;BMP280;69867;47.074;15.404;2023-06-22T01:11:55;97732.84;;;20.11
80537;BMP280;69867;47.074;15.404;2023-06-22T01:14:35;97726.44;;;20.01
80537;BMP280;69867;47.074;15.404;2023-06-22T01:17:07;97734.03;;;19.91
80537;BMP280;69867;47.074;15.404;2023-06-22T01:19:45;97732.59;;;19.86
80537;BMP280;69867;47.074;15.404;2023-06-22T01:22:13;97737.47;;;19.77
80537;BMP280;69867;47.074;15.404;2023-06-22T01:25:23;97737.81;;;19.71
80537;BMP280;69867;47.074;15.404;2023-06-22T01:28:01;97737.41;;;19.63
80537;BMP280;69867;47.074;15.404;2023-06-22T01:30:29;97732.41;;;19.59
80537;BMP280;69867;47.074;15.404;2023-06-22T01:32:57;97741.44;;;19.55
80537;BMP280;69867;47.074;15.404;2023-06-22T01:35:23;97748.56;;;19.53
80537;BMP280;69867;47.074;15.404;2023-06-22T01:37:49;97739.88;;;19.50
80537;BMP280;69867;47.074;15.404;2023-06-22T01:40:15;97743.59;;;19.46
80537;BMP280;69867;47.074;15.404;2023-06-22T01:42:41;97741.88;;;19.45
80537;BMP280;69867;47.074;15.404;2023-06-22T01:45:07;97733.03;;;19.46
80537;BMP280;69867;47.074;15.404;2023-06-22T01:47:34;97734.75;;;19.47
80537;BMP280;69867;47.074;15.404;2023-06-22T01:49:59;97741.72;;;19.48
80537;BMP280;69867;47.074;15.404;2023-06-22T01:52:25;97739.06;;;19.48
80537;BMP280;69867;47.074;15.404;2023-06-22T01:54:50;97727.59;;;19.49
80537;BMP280;69867;47.074;15.404;2023-06-22T01:57:15;97744.25;;;19.50
80537;BMP280;69867;47.074;15.404;2023-06-22T02:00:00;97739.94;;;19.49
80537;BMP280;69867;47.074;15.404;2023-06-22T02:02:33;97748.00;;;19.46
80537;BMP280;69867;47.074;15.404;2023-06-22T02:05:06;97751.56;;;19.45
80537;BMP280;69867;47.074;15.404;2023-06-22T02:07:34;97754.47;;;19.40
80537;BMP280;69867;47.074;15.404;2023-06-22T02:10:03;97754.47;;;19.40
80537;BMP280;69867;47.074;15.404;2023-06-22T02:12:32;97750.22;;;19.38
80537;BMP280;69867;47.074;15.404;2023-06-22T02:14:59;97744.94;;;19.38
80537;BMP280;69867;47.074;15.404;2023-06-22T02:17:26;97751.16;;;19.37
80537;BMP280;69867;47.074;15.404;2023-06-22T02:19:51;97755.56;;;19.36
80537;BMP280;69867;47.074;15.404;2023-06-22T02:22:16;97756.59;;;19.34
80537;BMP280;69867;47.074;15.404;2023-06-22T02:24:42;97760.34;;;19.30
80537;BMP280;69867;47.074;15.404;2023-06-22T02:27:07;97768.06;;;19.33
80537;BMP280;69867;47.074;15.404;2023-06-22T02:29:33;97770.63;;;19.34
80537;BMP280;69867;47.074;15.404;2023-06-22T02:31:58;97770.72;;;19.33
80537;BMP280;69867;47.074;15.404;2023-06-22T02:34:24;97769.88;;;19.32
80537;BMP280;69867;47.074;15.404;2023-06-22T02:36:49;97771.72;;;19.30
80537;BMP280;69867;47.074;15.404;2023-06-22T02:39:15;97770.97;;;19.28
80537;BMP280;69867;47.074;15.404;2023-06-22T02:41:40;97779.81;;;19.27
80537;BMP280;69867;47.074;15.404;2023-06-22T02:44:05;97780.81;;;19.25
80537;BMP280;69867;47.074;15.404;2023-06-22T02:46:31;97771.31;;;19.22
80537;BMP280;69867;47.074;15.404;2023-06-22T02:48:56;97777.44;;;19.23
80537;BMP280;69867;47.074;15.404;2023-06-22T02:51:21;97777.59;;;19.19
80537;BMP280;69867;47.074;15.404;2023-06-22T02:53:47;97783.88;;;19.17
80537;BMP280;69867;47.074;15.404;2023-06-22T02:56:12;97784.91;;;19.14
80537;BMP280;69867;47.074;15.404;2023-06-22T02:58:37;97776.06;;;19.15
80537;BMP280;69867;47.074;15.404;2023-06-22T03:01:03;97783.88;;;19.17
80537;BMP280;69867;47.074;15.404;2023-06-22T03:03:28;97776.75;;;19.19
80537;BMP280;69867;47.074;15.404;2023-06-22T03:05:53;97772.16;;;19.23
80537;BMP280;69867;47.074;15.404;2023-06-22T03:08:19;97768.50;;;19.25
80537;BMP280;69867;47.074;15.404;2023-06-22T03:10:44;97766.03;;;19.22
80537;BMP280;69867;47.074;15.404;2023-06-22T03:13:09;97771.06;;;19.27
80537;BMP280;69867;47.074;15.404;2023-06-22T03:15:34;97770.78;;;19.31
80537;BMP280;69867;47.074;15.404;2023-06-22T03:18:00;97761.78;;;19.35
80537;BMP280;69867;47.074;15.404;2023-06-22T03:20:25;97768.50;;;19.41
80537;BMP280;69867;47.074;15.404;2023-06-22T03:22:50;97763.22;;;19.41
80537;BMP280;69867;47.074;15.404;2023-06-22T03:25:16;97774.63;;;19.41
80537;BMP280;69867;47.074;15.404;2023-06-22T03:27:42;97779.81;;;19.43
80537;BMP280;69867;47.074;15.404;2023-06-22T03:30:09;97774.94;;;19.53
80537;BMP280;69867;47.074;15.404;2023-06-22T03:32:35;97765.66;;;19.61
80537;BMP280;69867;47.074;15.404;2023-06-22T03:35:01;97757.31;;;19.69
80537;BMP280;69867;47.074;15.404;2023-06-22T03:37:27;97760.94;;;19.82
80537;BMP280;69867;47.074;15.404;2023-06-22T03:39:53;97767.28;;;19.94
80537;BMP280;69867;47.074;15.404;2023-06-22T03:42:18;97770.25;;;20.03
80537;BMP280;69867;47.074;15.404;2023-06-22T03:44:43;97764.16;;;20.17
80537;BMP280;69867;47.074;15.404;2023-06-22T03:47:09;97767.28;;;20.24
80537;BMP280;69867;47.074;15.404;2023-06-22T03:49:34;97769.47;;;20.31
80537;BMP280;69867;47.074;15.404;2023-06-22T03:52:01;97775.22;;;20.38
80537;BMP280;69867;47.074;15.404;2023-06-22T03:54:26;97774.53;;;20.50
80537;BMP280;69867;47.074;15.404;2023-06-22T03:56:51;97777.72;;;20.55
80537;BMP280;69867;47.074;15.404;2023-06-22T03:59:17;97778.69;;;20.54
80537;BMP280;69867;47.074;15.404;2023-06-22T04:01:42;97774.91;;;20.58
80537;BMP280;69867;47.074;15.404;2023-06-22T04:04:07;97772.44;;;20.55
80537;BMP280;69867;47.074;15.404;2023-06-22T04:06:33;97777.44;;;20.60
80537;BMP280;69867;47.074;15.404;2023-06-22T04:08:58;97780.09;;;20.74
80537;BMP280;69867;47.074;15.404;2023-06-22T04:11:23;97771.53;;;20.99
80537;BMP280;69867;47.074;15.404;2023-06-22T04:13:49;97771.63;;;21.26
80537;BMP280;69867;47.074;15.404;2023-06-22T04:16:14;97754.69;;;21.43
80537;BMP280;69867;47.074;15.404;2023-06-22T04:18:39;97754.44;;;21.60
80537;BMP280;69867;47.074;15.404;2023-06-22T04:21:04;97749.09;;;21.74
80537;BMP280;69867;47.074;15.404;2023-06-22T04:23:30;97754.47;;;21.99
80537;BMP280;69867;47.074;15.404;2023-06-22T04:25:55;97746.75;;;22.23
80537;BMP280;69867;47.074;15.404;2023-06-22T04:28:20;97751.22;;;22.48
80537;BMP280;69867;47.074;15.404;2023-06-22T04:30:46;97750.38;;;22.60
80537;BMP280;69867;47.074;15.404;2023-06-22T04:33:13;97761.94;;;22.85
80537;BMP280;69867;47.074;15.404;2023-06-22T04:35:38;97761.16;;;23.08
80537;BMP280;69867;47.074;15.404;2023-06-22T04:38:03;97759.47;;;23.07
80537;BMP280;69867;47.074;15.404;2023-06-22T04:40:29;97753.53;;;23.53
80537;BMP280;69867;47.074;15.404;2023-06-22T04:42:54;97747.50;;;23.99
80537;BMP280;69867;47.074;15.404;2023-06-22T04:45:20;97745.31;;;24.74
80537;BMP280;69867;47.074;15.404;2023-06-22T04:47:45;97741.97;;;25.60
80537;BMP280;69867;47.074;15.404;2023-06-22T04:50:12;97733.78;;;25.95
80537;BMP280;69867;47.074;15.404;2023-06-22T04:52:37;97740.88;;;26.37
80537;BMP280;69867;47.074;15.404;2023-06-22T04:55:03;97735.59;;;26.68
80537;BMP280;69867;47.074;15.404;2023-06-22T04:57:28;97729.75;;;27.04
80537;BMP280;69867;47.074;15.404;2023-06-22T04:59:54;97714.78;;;27.92
80537;BMP280;69867;47.074;15.404;2023-06-22T05:02:19;97713.75;;;28.51
80537;BMP280;69867;47.074;15.404;2023-06-22T05:04:44;97709.34;;;28.69
80537;BMP280;69867;47.074;15.404;2023-06-22T05:07:10;97711.78;;;29.27
80537;BMP280;69867;47.074;15.404;2023-06-22T05:09:35;97705.22;;;29.67
80537;BMP280;69867;47.074;15.404;2023-06-22T05:12:02;97707.97;;;29.29
80537;BMP280;69867;47.074;15.404;2023-06-22T05:14:29;97704.56;;;30.00
80537;BMP280;69867;47.074;15.404;2023-06-22T05:16:54;97694.91;;;30.51
80537;BMP280;69867;47.074;15.404;2023-06-22T05:19:19;97699.41;;;30.68
80537;BMP280;69867;47.074;15.404;2023-06-22T05:21:45;97694.81;;;30.86
80537;BMP280;69867;47.074;15.404;2023-06-22T05:24:10;97695.59;;;31.13
80537;BMP280;69867;47.074;15.404;2023-06-22T05:26:35;97686.53;;;31.56
80537;BMP280;69867;47.074;15.404;2023-06-22T05:29:02;97687.13;;;31.84
80537;BMP280;69867;47.074;15.404;2023-06-22T05:31:28;97683.41;;;32.09
80537;BMP280;69867;47.074;15.404;2023-06-22T05:33:54;97690.81;;;31.83
80537;BMP280;69867;47.074;15.404;2023-06-22T05:36:20;97680.34;;;30.79
80537;BMP280;69867;47.074;15.404;2023-06-22T05:38:45;97697.44;;;30.52
80537;BMP280;69867;47.074;15.404;2023-06-22T05:41:11;97684.03;;;31.55
80537;BMP280;69867;47.074;15.404;2023-06-22T05:43:37;97674.03;;;32.30
80537;BMP280;69867;47.074;15.404;2023-06-22T05:46:03;97673.66;;;32.41
80537;BMP280;69867;47.074;15.404;2023-06-22T05:48:29;97675.47;;;32.73
80537;BMP280;69867;47.074;15.404;2023-06-22T05:50:54;97679.44;;;33.01
80537;BMP280;69867;47.074;15.404;2023-06-22T05:53:19;97673.22;;;33.63
80537;BMP280;69867;47.074;15.404;2023-06-22T05:55:45;97675.13;;;34.08
80537;BMP280;69867;47.074;15.404;2023-06-22T05:58:10;97668.41;;;34.27
80537;BMP280;69867;47.074;15.404;2023-06-22T06:00:36;97677.03;;;34.22
80537;BMP280;69867;47.074;15.404;2023-06-22T06:03:01;97677.03;;;34.22
80537;BMP280;69867;47.074;15.404;2023-06-22T06:05:27;97673.31;;;34.61
80537;BMP280;69867;47.074;15.404;2023-06-22T06:07:52;97669.28;;;34.42
80537;BMP280;69867;47.074;15.404;2023-06-22T06:10:17;97663.47;;;34.83
80537;BMP280;69867;47.074;15.404;2023-06-22T06:12:43;97674.19;;;34.91
80537;BMP280;69867;47.074;15.404;2023-06-22T06:15:08;97672.41;;;34.83
80537;BMP280;69867;47.074;15.404;2023-06-22T06:17:34;97674.44;;;34.29
80537;BMP280;69867;47.074;15.404;2023-06-22T06:19:59;97677.84;;;33.77
80537;BMP280;69867;47.074;15.404;2023-06-22T06:22:25;97677.84;;;33.77
80537;BMP280;69867;47.074;15.404;2023-06-22T06:24:50;97661.84;;;34.59
80537;BMP280;69867;47.074;15.404;2023-06-22T06:27:16;97654.06;;;34.93
80537;BMP280;69867;47.074;15.404;2023-06-22T06:29:41;97648.28;;;34.96
80537;BMP280;69867;47.074;15.404;2023-06-22T06:32:07;97644.66;;;35.19
80537;BMP280;69867;47.074;15.404;2023-06-22T06:34:32;97644.06;;;35.23
80537;BMP280;69867;47.074;15.404;2023-06-22T06:36:57;97634.47;;;35.06
80537;BMP280;69867;47.074;15.404;2023-06-22T06:39:23;97643.31;;;34.41
80537;BMP280;69867;47.074;15.404;2023-06-22T06:41:48;97638.66;;;33.97
80537;BMP280;69867;47.074;15.404;2023-06-22T06:44:14;97644.97;;;33.59
80537;BMP280;69867;47.074;15.404;2023-06-22T06:46:39;97648.91;;;32.70
80537;BMP280;69867;47.074;15.404;2023-06-22T06:49:04;97648.97;;;32.21
80537;BMP280;69867;47.074;15.404;2023-06-22T06:51:30;97648.47;;;31.85
80537;BMP280;69867;47.074;15.404;2023-06-22T06:53:55;97637.69;;;32.18
80537;BMP280;69867;47.074;15.404;2023-06-22T06:56:20;97644.78;;;32.02
80537;BMP280;69867;47.074;15.404;2023-06-22T06:58:46;97652.13;;;31.68
80537;BMP280;69867;47.074;15.404;2023-06-22T07:01:12;97649.06;;;30.62
80537;BMP280;69867;47.074;15.404;2023-06-22T07:03:37;97653.28;;;29.32
80537;BMP280;69867;47.074;15.404;2023-06-22T07:06:02;97654.56;;;29.55
80537;BMP280;69867;47.074;15.404;2023-06-22T07:08:28;97650.72;;;29.76
80537;BMP280;69867;47.074;15.404;2023-06-22T07:10:53;97647.59;;;29.62
80537;BMP280;69867;47.074;15.404;2023-06-22T07:13:18;97645.53;;;29.11
80537;BMP280;69867;47.074;15.404;2023-06-22T07:15:44;97648.13;;;29.03
80537;BMP280;69867;47.074;15.404;2023-06-22T07:18:09;97652.56;;;29.12
80537;BMP280;69867;47.074;15.404;2023-06-22T07:20:34;97657.19;;;29.38
80537;BMP280;69867;47.074;15.404;2023-06-22T07:23:00;97641.94;;;29.48
80537;BMP280;69867;47.074;15.404;2023-06-22T07:25:25;97641.94;;;29.48
80537;BMP280;69867;47.074;15.404;2023-06-22T07:28:02;97640.91;;;29.31
80537;BMP280;69867;47.074;15.404;2023-06-22T07:30:28;97642.50;;;29.42
80537;BMP280;69867;47.074;15.404;2023-06-22T07:32:54;97636.63;;;29.38
80537;BMP280;69867;47.074;15.404;2023-06-22T07:35:19;97640.09;;;29.48
80537;BMP280;69867;47.074;15.404;2023-06-22T07:37:45;97636.66;;;29.74
80537;BMP280;69867;47.074;15.404;2023-06-22T07:40:10;97637.34;;;29.76
80537;BMP280;69867;47.074;15.404;2023-06-22T07:42:36;97641.88;;;29.93
80537;BMP280;69867;47.074;15.404;2023-06-22T07:45:05;97642.94;;;29.65
80537;BMP280;69867;47.074;15.404;2023-06-22T07:47:30;97642.59;;;29.32
80537;BMP280;69867;47.074;15.404;2023-06-22T07:49:58;97632.44;;;29.71
80537;BMP280;69867;47.074;15.404;2023-06-22T07:52:24;97636.19;;;29.78
80537;BMP280;69867;47.074;15.404;2023-06-22T07:54:50;97632.41;;;29.89
80537;BMP280;69867;47.074;15.404;2023-06-22T07:57:15;97635.66;;;29.92
80537;BMP280;69867;47.074;15.404;2023-06-22T07:59:40;97630.09;;;30.04
80537;BMP280;69867;47.074;15.404;2023-06-22T08:02:06;97631.59;;;30.06
80537;BMP280;69867;47.074;15.404;2023-06-22T08:04:31;97627.09;;;30.07
80537;BMP280;69867;47.074;15.404;2023-06-22T08:06:56;97624.88;;;30.02
80537;BMP280;69867;47.074;15.404;2023-06-22T08:09:21;97630.63;;;30.07
80537;BMP280;69867;47.074;15.404;2023-06-22T08:11:47;97621.78;;;30.15
80537;BMP280;69867;47.074;15.404;2023-06-22T08:14:12;97626.25;;;30.32
80537;BMP280;69867;47.074;15.404;2023-06-22T08:16:38;97625.13;;;30.43
80537;BMP280;69867;47.074;15.404;2023-06-22T08:19:03;97614.78;;;30.48
80537;BMP280;69867;47.074;15.404;2023-06-22T08:21:28;97623.72;;;30.31
80537;BMP280;69867;47.074;15.404;2023-06-22T08:23:53;97612.03;;;30.40
80537;BMP280;69867;47.074;15.404;2023-06-22T08:26:19;97614.25;;;30.44
80537;BMP280;69867;47.074;15.404;2023-06-22T08:28:44;97614.78;;;30.48
80537;BMP280;69867;47.074;15.404;2023-06-22T08:31:09;97615.44;;;30.50
80537;BMP280;69867;47.074;15.404;2023-06-22T08:33:35;97614.19;;;30.62
80537;BMP280;69867;47.074;15.404;2023-06-22T08:36:00;97611.41;;;30.46
80537;BMP280;69867;47.074;15.404;2023-06-22T08:38:26;97612.72;;;30.42
80537;BMP280;69867;47.074;15.404;2023-06-22T08:40:51;97613.28;;;30.19
80537;BMP280;69867;47.074;15.404;2023-06-22T08:43:16;97611.22;;;30.13
80537;BMP280;69867;47.074;15.404;2023-06-22T08:45:42;97612.59;;;30.17
80537;BMP280;69867;47.074;15.404;2023-06-22T08:48:07;97606.38;;;30.43
80537;BMP280;69867;47.074;15.404;2023-06-22T08:50:32;97608.50;;;30.65
80537;BMP280;69867;47.074;15.404;2023-06-22T08:52:58;97605.69;;;30.41
80537;BMP280;69867;47.074;15.404;2023-06-22T08:55:23;97604.16;;;30.64
80537;BMP280;69867;47.074;15.404;2023-06-22T08:57:48;97602.69;;;30.78
80537;BMP280;69867;47.074;15.404;2023-06-22T09:00:14;97602.03;;;30.76
80537;BMP280;69867;47.074;15.404;2023-06-22T09:02:39;97600.31;;;30.67
80537;BMP280;69867;47.074;15.404;2023-06-22T09:05:05;97603.59;;;30.27
80537;BMP280;69867;47.074;15.404;2023-06-22T09:07:30;97600.94;;;30.61
80537;BMP280;69867;47.074;15.404;2023-06-22T09:09:56;97592.50;;;30.89
80537;BMP280;69867;47.074;15.404;2023-06-22T09:12:21;97584.53;;;31.14
80537;BMP280;69867;47.074;15.404;2023-06-22T09:14:47;97587.97;;;31.24
80537;BMP280;69867;47.074;15.404;2023-06-22T09:17:12;97579.91;;;31.32
80537;BMP280;69867;47.074;15.404;2023-06-22T09:19:38;97586.63;;;31.36
80537;BMP280;69867;47.074;15.404;2023-06-22T09:22:03;97587.97;;;31.40
80537;BMP280;69867;47.074;15.404;2023-06-22T09:24:29;97583.28;;;31.42
80537;BMP280;69867;47.074;15.404;2023-06-22T09:26:54;97582.94;;;31.45
80537;BMP280;69867;47.074;15.404;2023-06-22T09:29:19;97584.00;;;31.10
80537;BMP280;69867;47.074;15.404;2023-06-22T09:31:45;97588.53;;;31.10
80537;BMP280;69867;47.074;15.404;2023-06-22T09:34:10;97581.50;;;31.09
80537;BMP280;69867;47.074;15.404;2023-06-22T09:36:35;97582.66;;;31.06
80537;BMP280;69867;47.074;15.404;2023-06-22T09:39:01;97580.47;;;31.02
80537;BMP280;69867;47.074;15.404;2023-06-22T09:41:26;97576.28;;;30.99
80537;BMP280;69867;47.074;15.404;2023-06-22T09:43:51;97572.09;;;31.13
80537;BMP280;69867;47.074;15.404;2023-06-22T09:46:18;97572.09;;;31.13
80537;BMP280;69867;47.074;15.404;2023-06-22T09:48:43;97568.41;;;31.14
80537;BMP280;69867;47.074;15.404;2023-06-22T09:51:09;97566.44;;;31.16
80537;BMP280;69867;47.074;15.404;2023-06-22T09:53:34;97572.41;;;30.94
80537;BMP280;69867;47.074;15.404;2023-06-22T09:55:59;97564.97;;;31.22
80537;BMP280;69867;47.074;15.404;2023-06-22T09:58:25;97568.75;;;31.11
80537;BMP280;69867;47.074;15.404;2023-06-22T10:00:50;97561.75;;;31.18
80537;BMP280;69867;47.074;15.404;2023-06-22T10:03:16;97557.41;;;31.25
80537;BMP280;69867;47.074;15.404;2023-06-22T10:05:41;97557.44;;;31.41
80537;BMP280;69867;47.074;15.404;2023-06-22T10:08:06;97570.47;;;31.20
80537;BMP280;69867;47.074;15.404;2023-06-22T10:10:32;97559.09;;;31.34
80537;BMP280;69867;47.074;15.404;2023-06-22T10:13:02;97557.44;;;31.58
80537;BMP280;69867;47.074;15.404;2023-06-22T10:15:27;97546.84;;;31.40
80537;BMP280;69867;47.074;15.404;2023-06-22T10:17:53;97552.72;;;31.60
80537;BMP280;69867;47.074;15.404;2023-06-22T10:20:18;97549.06;;;31.77
80537;BMP280;69867;47.074;15.404;2023-06-22T10:22:45;97545.88;;;31.73
80537;BMP280;69867;47.074;15.404;2023-06-22T10:25:11;97549.38;;;31.66
80537;BMP280;69867;47.074;15.404;2023-06-22T10:27:37;97538.31;;;31.77
80537;BMP280;69867;47.074;15.404;2023-06-22T10:30:03;97537.28;;;31.78
80537;BMP280;69867;47.074;15.404;2023-06-22T10:32:28;97535.28;;;31.80
80537;BMP280;69867;47.074;15.404;2023-06-22T10:34:54;97532.94;;;31.77
80537;BMP280;69867;47.074;15.404;2023-06-22T10:37:19;97533.25;;;31.58
80537;BMP280;69867;47.074;15.404;2023-06-22T10:39:45;97534.44;;;31.47
80537;BMP280;69867;47.074;15.404;2023-06-22T10:42:12;97534.94;;;31.50
80537;BMP280;69867;47.074;15.404;2023-06-22T10:44:37;97538.47;;;31.51
80537;BMP280;69867;47.074;15.404;2023-06-22T10:47:02;97534.75;;;31.68
80537;BMP280;69867;47.074;15.404;2023-06-22T10:49:28;97534.59;;;31.78
80537;BMP280;69867;47.074;15.404;2023-06-22T10:51:53;97530.94;;;31.71
80537;BMP280;69867;47.074;15.404;2023-06-22T10:54:19;97526.22;;;31.73
80537;BMP280;69867;47.074;15.404;2023-06-22T10:56:44;97526.19;;;31.65
80537;BMP280;69867;47.074;15.404;2023-06-22T10:59:09;97512.94;;;31.55
80537;BMP280;69867;47.074;15.404;2023-06-22T11:01:35;97515.13;;;31.43
80537;BMP280;69867;47.074;15.404;2023-06-22T11:04:00;97513.63;;;31.49
80537;BMP280;69867;47.074;15.404;2023-06-22T11:06:25;97506.72;;;31.55
80537;BMP280;69867;47.074;15.404;2023-06-22T11:08:51;97514.78;;;31.63
80537;BMP280;69867;47.074;15.404;2023-06-22T11:11:16;97506.91;;;31.69
80537;BMP280;69867;47.074;15.404;2023-06-22T11:13:41;97506.91;;;31.69
80537;BMP280;69867;47.074;15.404;2023-06-22T11:16:07;97503.03;;;31.80
80537;BMP280;69867;47.074;15.404;2023-06-22T11:18:32;97501.69;;;31.76
80537;BMP280;69867;47.074;15.404;2023-06-22T11:20:57;97507.41;;;31.73
80537;BMP280;69867;47.074;15.404;2023-06-22T11:23:23;97506.41;;;31.74
80537;BMP280;69867;47.074;15.404;2023-06-22T11:25:48;97500.34;;;31.47
80537;BMP280;69867;47.074;15.404;2023-06-22T11:28:13;97504.38;;;31.60
80537;BMP280;69867;47.074;15.404;2023-06-22T11:30:39;97503.88;;;31.64
80537;BMP280;69867;47.074;15.404;2023-06-22T11:33:04;97500.53;;;31.46
80537;BMP280;69867;47.074;15.404;2023-06-22T11:35:29;97503.53;;;31.59
80537;BMP280;69867;47.074;15.404;2023-06-22T11:37:54;97503.03;;;31.56
80537;BMP280;69867;47.074;15.404;2023-06-22T11:40:20;97497.97;;;31.69
80537;BMP280;69867;47.074;15.404;2023-06-22T11:42:45;97483.19;;;31.89
80537;BMP280;69867;47.074;15.404;2023-06-22T11:45:11;97483.19;;;31.89
80537;BMP280;69867;47.074;15.404;2023-06-22T11:47:36;97481.16;;;31.99
80537;BMP280;69867;47.074;15.404;2023-06-22T11:50:03;97482.31;;;32.05
80537;BMP280;69867;47.074;15.404;2023-06-22T11:52:28;97484.47;;;32.09
80537;BMP280;69867;47.074;15.404;2023-06-22T11:54:53;97480.91;;;32.17
80537;BMP280;69867;47.074;15.404;2023-06-22T11:57:19;97479.91;;;32.18
80537;BMP280;69867;47.074;15.404;2023-06-22T11:59:44;97479.91;;;32.18
80537;BMP280;69867;47.074;15.404;2023-06-22T12:02:09;97467.59;;;32.32
80537;BMP280;69867;47.074;15.404;2023-06-22T12:04:35;97464.97;;;32.15
80537;BMP280;69867;47.074;15.404;2023-06-22T12:07:00;97459.63;;;32.07
80537;BMP280;69867;47.074;15.404;2023-06-22T12:09:26;97456.41;;;32.12
80537;BMP280;69867;47.074;15.404;2023-06-22T12:11:51;97449.31;;;32.27
80537;BMP280;69867;47.074;15.404;2023-06-22T12:14:16;97453.78;;;32.43
80537;BMP280;69867;47.074;15.404;2023-06-22T12:16:41;97459.81;;;32.45
80537;BMP280;69867;47.074;15.404;2023-06-22T12:21:37;97460.56;;;32.31
80537;BMP280;69867;47.074;15.404;2023-06-22T12:24:03;97455.19;;;32.31
80537;BMP280;69867;47.074;15.404;2023-06-22T12:26:28;97455.00;;;32.32
80537;BMP280;69867;47.074;15.404;2023-06-22T12:28:53;97448.59;;;32.33
80537;BMP280;69867;47.074;15.404;2023-06-22T12:31:19;97448.59;;;32.33
80537;BMP280;69867;47.074;15.404;2023-06-22T12:33:44;97439.69;;;32.33
80537;BMP280;69867;47.074;15.404;2023-06-22T12:36:09;97439.69;;;32.33
80537;BMP280;69867;47.074;15.404;2023-06-22T12:38:35;97443.47;;;32.55
80537;BMP280;69867;47.074;15.404;2023-06-22T12:41:00;97444.25;;;32.63
80537;BMP280;69867;47.074;15.404;2023-06-22T12:43:26;97441.97;;;32.52
80537;BMP280;69867;47.074;15.404;2023-06-22T12:45:51;97441.97;;;32.52
80537;BMP280;69867;47.074;15.404;2023-06-22T12:48:16;97435.53;;;32.61
80537;BMP280;69867;47.074;15.404;2023-06-22T12:50:42;97441.94;;;32.60
80537;BMP280;69867;47.074;15.404;2023-06-22T12:53:07;97436.63;;;32.44
80537;BMP280;69867;47.074;15.404;2023-06-22T12:55:32;97436.63;;;32.44
80537;BMP280;69867;47.074;15.404;2023-06-22T12:57:58;97433.94;;;32.44
80537;BMP280;69867;47.074;15.404;2023-06-22T13:00:23;97431.53;;;32.49
80537;BMP280;69867;47.074;15.404;2023-06-22T13:02:49;97425.59;;;32.62
80537;BMP280;69867;47.074;15.404;2023-06-22T13:05:14;97424.91;;;32.68
80537;BMP280;69867;47.074;15.404;2023-06-22T13:07:39;97416.94;;;32.74
80537;BMP280;69867;47.074;15.404;2023-06-22T13:10:05;97414.41;;;32.81
80537;BMP280;69867;47.074;15.404;2023-06-22T13:12:30;97425.53;;;33.01
80537;BMP280;69867;47.074;15.404;2023-06-22T13:14:56;97421.81;;;33.02
80537;BMP280;69867;47.074;15.404;2023-06-22T13:17:21;97423.84;;;33.00
80537;BMP280;69867;47.074;15.404;2023-06-22T13:19:47;97430.94;;;33.16
80537;BMP280;69867;47.074;15.404;2023-06-22T13:22:44;97420.91;;;33.09
80537;BMP280;69867;47.074;15.404;2023-06-22T13:25:10;97424.63;;;33.31
80537;BMP280;69867;47.074;15.404;2023-06-22T13:27:35;97414.97;;;33.37
80537;BMP280;69867;47.074;15.404;2023-06-22T13:30:01;97422.75;;;33.32
80537;BMP280;69867;47.074;15.404;2023-06-22T13:32:26;97420.06;;;33.32
80537;BMP280;69867;47.074;15.404;2023-06-22T13:34:52;97410.03;;;33.40
80537;BMP280;69867;47.074;15.404;2023-06-22T13:37:17;97402.81;;;33.41
80537;BMP280;69867;47.074;15.404;2023-06-22T13:39:43;97404.41;;;33.27
80537;BMP280;69867;47.074;15.404;2023-06-22T13:42:08;97412.28;;;33.14
80537;BMP280;69867;47.074;15.404;2023-06-22T13:44:34;97419.13;;;33.02
80537;BMP280;69867;47.074;15.404;2023-06-22T13:46:59;97410.53;;;32.84
80537;BMP280;69867;47.074;15.404;2023-06-22T13:49:25;97409.03;;;32.81
80537;BMP280;69867;47.074;15.404;2023-06-22T13:51:50;97408.41;;;32.71